»·PEaware :: N351CB KSNA-KSAN

N351CB :: KSNA-KSAN

FLIGHT INFORMATION

Flight Status: Arrived
Operator: Privately registered:
United States
More flights under this callsign
Pilot: Andrew K. (26905)
Aircraft: SOCATA TBM-900
(TBM9)
More flights by this aircraft type
Origin: KSNA John Wayne-Orange Co
United States
Destination: KSAN San Diego Intl-Lindbergh
United States
More flights between these airports :: More routes between these airports
Route: +
File this flight plan on PilotEdge
Remarks:
Altitude:
(Current/Filed)
7,500ft
Speed:
(Current/Filed)
0kts
Departed: 05-Feb-20 07:21 PM
Arrived: 05-Feb-20 07:47 PM
Distance/Time
Traveled:
66nm/0:26
Distance/Time
To Go:
Arrived

Flight Plot

Page will automatically refresh every two minutes.


Map Options




Map Legend


Flown Route
Filed Route
Departure Airport
Arrival Airport
Navaid (VOR, NDB)
Fix

Horizontal Profiles

Position Reports

Time Latitude Longitude Heading Altitude Ground
Speed
05-Feb-20 19:06 33.666469 -117.872864 18 59ft 0kts
05-Feb-20 19:07 33.666469 -117.872864 18 59ft 0kts
05-Feb-20 19:08 33.666469 -117.872864 18 59ft 0kts
05-Feb-20 19:09 33.666469 -117.872864 18 59ft 0kts
05-Feb-20 19:10 33.666470 -117.872864 18 59ft 0kts
05-Feb-20 19:11 33.666470 -117.872864 18 59ft 0kts
05-Feb-20 19:12 33.666470 -117.872864 18 59ft 0kts
05-Feb-20 19:13 33.666470 -117.872864 18 59ft 0kts
05-Feb-20 19:14 33.667042 -117.872740 14 59ft 16kts
05-Feb-20 19:15 33.669832 -117.870251 39 59ft 10kts
05-Feb-20 19:16 33.672651 -117.867800 36 59ft 14kts
05-Feb-20 19:17 33.676057 -117.865865 28 59ft 20kts
05-Feb-20 19:18 33.679924 -117.863548 301 59ft 0kts
05-Feb-20 19:19 33.679558 -117.864507 209 59ft 33kts
05-Feb-20 19:20 33.654219 -117.880300 173 1483ft 137kts
05-Feb-20 19:21 33.614982 -117.862955 161 2423ft 178kts
05-Feb-20 19:22 33.566302 -117.840889 161 2864ft 167kts
05-Feb-20 19:23 33.528501 -117.822699 161 4414ft 151kts
05-Feb-20 19:24 33.484852 -117.797862 148 5531ft 210kts
05-Feb-20 19:25 33.431027 -117.754327 146 5505ft 245kts
05-Feb-20 19:26 33.373921 -117.707702 144 5501ft 250kts
05-Feb-20 19:27 33.316575 -117.660912 144 5500ft 248kts
05-Feb-20 19:28 33.259519 -117.614444 144 5500ft 247kts
05-Feb-20 19:29 33.202632 -117.568199 144 5500ft 247kts
05-Feb-20 19:30 33.145852 -117.522115 144 5498ft 247kts
05-Feb-20 19:31 33.088677 -117.475786 144 5496ft 248kts
05-Feb-20 19:32 33.031299 -117.429365 144 5467ft 250kts
05-Feb-20 19:33 32.973702 -117.382841 144 5465ft 251kts
05-Feb-20 19:34 32.915724 -117.336072 145 5465ft 252kts
05-Feb-20 19:35 32.857240 -117.288988 145 5464ft 253kts
05-Feb-20 19:36 32.803044 -117.245416 146 4412ft 218kts
05-Feb-20 19:37 32.772952 -117.187478 145 3056ft 208kts
05-Feb-20 19:38 32.725729 -117.190180 135 2875ft 186kts
05-Feb-20 19:39 32.692013 -117.140889 94 2464ft 204kts
05-Feb-20 19:40 32.684812 -117.071055 126 1616ft 202kts
05-Feb-20 19:41 32.676747 -117.028433 350 1587ft 158kts
05-Feb-20 19:42 32.697007 -117.062771 296 1131ft 128kts
05-Feb-20 19:43 32.712496 -117.102204 284 1432ft 146kts
05-Feb-20 19:44 32.721917 -117.141066 286 965ft 85kts
05-Feb-20 19:45 32.728401 -117.168490 283 354ft 87kts
05-Feb-20 19:46 32.733812 -117.190624 300 16ft 28kts
05-Feb-20 19:47 32.734683 -117.190729 43 16ft 0kts
05-Feb-20 19:48 32.734831 -117.190202 92 16ft 16kts
05-Feb-20 19:49 32.733036 -117.182681 107 16ft 20kts
05-Feb-20 19:50 32.732549 -117.178429 35 20ft 0kts
05-Feb-20 19:51 32.732549 -117.178429 35 20ft 0kts
05-Feb-20 19:52 32.732549 -117.178429 35 20ft 0kts
05-Feb-20 19:53 32.732549 -117.178429 35 20ft 0kts
05-Feb-20 19:54 32.732549 -117.178429 35 20ft 0kts
05-Feb-20 19:55 32.732549 -117.178429 35 20ft 0kts
05-Feb-20 19:56 32.732549 -117.178429 35 20ft 0kts
05-Feb-20 19:57 32.732549 -117.178429 35 20ft 0kts
05-Feb-20 19:58 32.732549 -117.178429 35 20ft 0kts
05-Feb-20 19:59 32.732549 -117.178429 35 20ft 0kts
05-Feb-20 20:00 32.732549 -117.178429 35 20ft 0kts

Navigation Log

Ident Type
Flight plan parsing failed, navigation log unavailable